Latest Weather Observations for Pallamana

IDS60801

Issued at 11:21 am CST Friday 14 May 2021 (issued every 10 minutes, with the page automatically refreshed every 10 minutes)

About weather observations | Map of weather stations | Latest weather observations for SA | Other Formats
Station Details ID: 024584 Name: PALLAMANA AERODROME Lat: -35.06 Lon: 139.23 Height: 45.0 m
Data from the previous 72 hours. | See also: Recent months at Pallamana
Date/Time
CST
Temp
°C
App
Temp
°C
Dew
Point
°C
Rel
Hum
%
Delta-T
°C
Wind Press
QNH
hPa
Press
MSL
hPa
Rain since
9am
mm
Dir  Spd
km/h
Gust
km/h
Spd
kts
Gust
kts
14/11:00am 15.9 10.6 10.0 68 3.1 SW 28 39 15 21 1021.3 1021.3 0.0
14/10:30am 14.9 11.1 9.9 72 2.6 W 20 28 11 15 1021.6 1021.6 0.0
14/10:00am 13.6 7.3 9.8 78 2.0 SW 33 46 18 25 1021.7 1021.7 0.0
14/09:30am 14.6 10.3 9.2 70 2.8 WSW 22 33 12 18 1021.5 1021.5 0.0
14/09:00am 13.8 11.0 10.0 78 2.0 W 15 20 8 11 1021.4 1021.4 2.0
14/08:30am 13.2 10.0 10.0 81 1.6 WSW 17 26 9 14 1021.0 1021.0 2.0
14/08:00am 12.8 9.1 10.2 84 1.3 WSW 20 26 11 14 1020.7 1020.7 2.0
14/07:30am 12.3 9.0 9.7 84 1.3 W 17 22 9 12 1020.2 1020.2 2.0
14/07:00am 11.6 9.0 9.3 86 1.2 W 13 17 7 9 1019.8 1019.8 2.0
14/06:30am 11.9 9.4 9.6 86 1.2 W 13 17 7 9 1019.5 1019.5 2.0
14/06:00am 10.7 9.0 9.9 95 0.4 WSW 9 13 5 7 1019.1 1019.1 2.0
14/05:30am 11.4 7.4 10.5 94 0.5 SW 22 26 12 14 1019.1 1019.1 2.0
14/05:00am 9.8 9.2 8.9 94 0.4 SSE 2 6 1 3 1019.0 1019.0 2.0
14/04:30am 11.0 9.2 9.4 90 0.8 WNW 9 13 5 7 1018.6 1018.6 2.0
14/04:00am 11.0 8.4 9.3 89 0.9 W 13 20 7 11 1018.6 1018.6 2.0
14/03:30am 8.7 6.8 6.7 87 0.9 WNW 6 9 3 5 1018.7 1018.7 2.0
14/03:00am 8.5 6.1 6.8 89 0.8 WNW 9 11 5 6 1018.8 1018.8 2.0
14/02:30am 9.3 6.1 6.9 85 1.1 WNW 13 15 7 8 1018.9 1018.9 2.0
14/02:00am 9.1 5.9 6.9 86 1.0 W 13 15 7 8 1019.1 1019.1 2.0
14/01:30am 8.6 5.7 6.6 87 0.9 WNW 11 13 6 7 1019.2 1019.2 2.0
14/01:00am 8.9 5.3 6.9 87 0.9 WNW 15 17 8 9 1019.4 1019.4 2.0
14/12:30am 8.9 5.3 6.9 87 0.9 WNW 15 17 8 9 1019.7 1019.7 2.0
14/12:00am 8.9 5.4 7.0 88 0.9 WNW 15 17 8 9 1019.8 1019.8 2.0
 
Date/Time
CST
Temp
°C
App
Temp
°C
Dew
Point
°C
Rel
Hum
%
Delta-T
°C
Wind Press
QNH
hPa
Press
MSL
hPa
Rain since
9am
mm
Dir  Spd
km/h
Gust
km/h
Spd
kts
Gust
kts
13/11:30pm 8.8 5.6 6.8 87 0.9 W 13 15 7 8 1019.9 1019.9 2.0
13/11:00pm 9.0 5.5 7.0 87 0.9 WNW 15 17 8 9 1020.1 1020.1 2.0
13/10:30pm 9.1 6.0 7.1 87 0.9 WNW 13 19 7 10 1020.2 1020.2 2.0
13/10:00pm 9.1 5.9 6.7 85 1.1 WNW 13 17 7 9 1020.3 1020.3 2.0
13/09:30pm 9.8 6.3 7.2 84 1.2 W 15 19 8 10 1020.2 1020.2 2.0
13/09:00pm 9.3 6.5 7.1 86 1.0 WNW 11 15 6 8 1020.2 1020.2 2.0
13/08:30pm 9.8 6.7 7.4 85 1.1 W 13 17 7 9 1020.1 1020.1 2.0
13/08:00pm 9.1 6.7 7.2 88 0.9 WNW 9 11 5 6 1019.9 1019.9 2.0
13/07:30pm 10.4 8.2 7.8 84 1.3 W 9 13 5 7 1019.9 1019.9 2.0
13/07:00pm 10.2 7.6 7.8 85 1.2 WSW 11 13 6 7 1019.7 1019.7 2.0
13/06:30pm 11.5 8.7 8.4 81 1.5 SW 13 17 7 9 1019.5 1019.5 2.0
13/06:00pm 11.8 9.0 8.6 81 1.6 SW 13 15 7 8 1019.3 1019.3 2.0
13/05:30pm 12.5 9.1 9.0 79 1.8 SW 17 20 9 11 1018.9 1018.9 2.0
13/05:00pm 13.2 8.5 9.1 76 2.1 SW 24 30 13 16 1018.7 1018.7 2.0
13/04:31pm 13.5 7.2 9.0 74 2.3 SW 32 52 17 28 1018.1 1018.1 2.0
13/04:30pm 13.8 8.3 9.3 74 2.3 SW 28 44 15 24 1018.2 1018.2 2.0
13/04:00pm 14.3 9.6 9.3 72 2.6 SW 24 32 13 17 1018.0 1018.0 2.0
13/03:30pm 14.6 9.7 10.0 74 2.4 SW 26 33 14 18 1017.7 1017.7 2.0
13/03:00pm 14.3 7.8 10.3 77 2.1 SW 35 46 19 25 1017.5 1017.5 2.0
13/02:30pm 14.5 8.9 10.1 75 2.3 SW 30 37 16 20 1017.3 1017.3 2.0
13/02:00pm 14.3 8.1 11.5 83 1.5 SSW 35 46 19 25 1017.0 1017.0 2.0
13/01:30pm 15.1 10.6 11.3 78 2.0 SSW 26 33 14 18 1016.9 1016.9 2.0
13/01:00pm 14.2 10.1 12.8 91 0.8 SW 26 37 14 20 1017.1 1017.1 2.0
13/12:46pm 13.8 9.2 12.4 91 0.8 SSW 28 39 15 21 1017.3 1017.3 2.0
13/12:37pm 13.7 9.1 12.4 92 0.7 SW 28 37 15 20 1017.3 1017.3 2.0
13/12:30pm 13.9 10.0 13.3 96 0.3 SW 26 33 14 18 1017.4 1017.4 2.0
13/12:24pm 13.8 10.8 13.6 99 0.1 SW 22 32 12 17 1017.4 1017.4 2.0
13/12:00pm 13.6 9.6 13.1 97 0.3 SW 26 35 14 19 1017.5 1017.5 2.0
13/11:53am 13.9 10.1 13.7 99 0.1 SW 26 35 14 19 1017.6 1017.6 2.0
13/11:30am 13.5 10.8 13.5 100 0.0 SW 20 30 11 16 1017.8 1017.8 1.8
13/11:07am 13.4 11.2 13.2 99 0.1 W 17 20 9 11 1017.7 1017.7 0.8
13/11:00am 13.3 11.0 13.0 98 0.2 WNW 17 24 9 13 1017.8 1017.8 0.4
13/10:31am 14.1 9.8 12.1 88 1.1 W 26 37 14 20 1017.5 1017.5 0.0
13/10:30am 14.2 9.9 12.1 87 1.1 W 26 37 14 20 1017.5 1017.5 0.0
13/10:00am 16.0 10.7 11.2 73 2.6 WNW 30 39 16 21 1016.7 1016.7 0.0
13/09:30am 14.6 10.2 10.4 76 2.2 WNW 24 33 13 18 1016.4 1016.4 0.0
13/09:00am 14.9 9.8 10.5 75 2.3 WNW 28 46 15 25 1016.0 1016.0 0.0
13/08:30am 14.3 11.6 10.3 77 2.1 NW 15 28 8 15 1016.1 1016.1 0.0
13/08:00am 13.0 11.5 9.3 78 1.9 N 7 13 4 7 1016.1 1016.1 0.0
13/07:30am 11.0 9.0 8.6 85 1.2 NNW 9 15 5 8 1016.0 1016.0 0.0
13/07:00am 10.4 7.5 8.0 85 1.2 NNW 13 17 7 9 1015.9 1015.9 0.0
13/06:30am 8.0 5.6 6.8 92 0.6 NE 9 15 5 8 1016.0 1016.0 0.0
13/06:00am 8.3 6.4 6.6 89 0.8 NNW 6 11 3 6 1015.9 1015.9 0.0
13/05:30am 7.5 4.2 6.4 93 0.5 NNW 13 17 7 9 1015.8 1015.8 0.0
13/05:00am 6.5 4.5 6.1 97 0.2 NNE 6 7 3 4 1016.2 1016.2 0.0
13/04:30am 6.3 4.2 5.9 97 0.2 NNW 6 9 3 5 1016.3 1016.3 0.0
13/04:00am 5.8 2.4 5.7 99 0.0 N 13 15 7 8 1016.4 1016.4 0.0
13/03:30am 5.0 3.1 5.0 100 0.0 WNW 4 9 2 5 1016.8 1016.8 0.0
13/03:00am 5.1 3.6 5.0 99 0.0 NW 2 7 1 4 1017.4 1017.4 0.0
13/02:30am 4.8 3.2 4.4 97 0.2 NW 2 7 1 4 1017.5 1017.5 0.0
13/02:00am 5.7 3.5 5.4 98 0.1 N 6 7 3 4 1017.8 1017.8 0.0
13/01:30am 6.2 4.5 5.9 98 0.1 N 4 7 2 4 1018.0 1018.0 0.0
13/01:00am 5.4 2.9 4.5 94 0.4 E 7 11 4 6 1018.0 1018.0 0.0
13/12:30am 7.0 4.3 5.8 92 0.5 NNW 9 11 5 6 1018.1 1018.1 0.0
13/12:00am 7.0 4.1 6.4 96 0.3 NNW 11 13 6 7 1018.0 1018.0 0.0
 
Date/Time
CST
Temp
°C
App
Temp
°C
Dew
Point
°C
Rel
Hum
%
Delta-T
°C
Wind Press
QNH
hPa
Press
MSL
hPa
Rain since
9am
mm
Dir  Spd
km/h
Gust
km/h
Spd
kts
Gust
kts
12/11:30pm 8.2 5.4 7.0 92 0.6 N 11 15 6 8 1018.7 1018.7 0.0
12/11:00pm 8.8 6.2 7.9 94 0.4 NNW 11 13 6 7 1018.7 1018.7 0.0
12/10:30pm 7.9 5.2 7.3 96 0.3 NNW 11 15 6 8 1018.9 1018.9 0.0
12/10:00pm 8.4 6.2 8.0 97 0.2 NNW 9 11 5 6 1019.4 1019.4 0.0
12/09:30pm 7.9 5.6 7.6 98 0.1 NW 9 13 5 7 1019.9 1019.9 0.0
12/09:00pm 8.2 6.3 7.6 96 0.3 NW 7 9 4 5 1020.1 1020.1 0.0
12/08:30pm 8.4 7.0 7.3 93 0.5 N 4 7 2 4 1019.9 1019.9 0.0
12/08:00pm 9.7 8.5 8.1 90 0.8 NNW 4 7 2 4 1020.5 1020.5 0.0
12/07:30pm 10.0 9.7 8.8 92 0.6 CALM 0 0 0 0 1020.7 1020.7 0.0
12/07:00pm 10.9 10.4 9.2 89 0.8 SW 2 7 1 4 1020.5 1020.5 0.0
12/06:30pm 11.5 11.0 9.4 87 1.1 SSW 2 7 1 4 1020.1 1020.1 0.0
12/06:00pm 12.2 11.0 9.6 84 1.3 S 6 7 3 4 1019.9 1019.9 0.0
12/05:30pm 13.7 11.7 10.1 79 1.9 SSW 11 13 6 7 1019.8 1019.8 0.0
12/05:00pm 16.2 14.8 9.6 65 3.4 SSE 7 9 4 5 1019.7 1019.7 0.0
12/04:30pm 16.9 15.4 9.3 61 3.9 NE 7 11 4 6 1019.8 1019.8 0.0
12/04:00pm 17.6 16.2 8.7 56 4.6 NW 6 7 3 4 1019.9 1019.9 0.0
12/03:30pm 17.6 16.1 9.0 57 4.5 NNE 7 9 4 5 1019.9 1019.9 0.0
12/03:00pm 17.4 16.1 9.8 61 4.0 E 7 11 4 6 1020.0 1020.0 0.0
12/02:30pm 17.1 14.5 9.3 60 4.1 NE 13 20 7 11 1020.1 1020.1 0.0
12/02:00pm 17.0 15.2 9.4 61 4.0 NNW 9 13 5 7 1020.5 1020.5 0.0
12/01:30pm 16.6 15.2 9.5 63 3.7 NW 7 13 4 7 1021.1 1021.1 0.0
12/01:00pm 15.6 12.9 8.8 64 3.5 N 13 17 7 9 1021.7 1021.7 0.0
12/12:30pm 15.2 14.1 9.8 70 2.8 ESE 6 9 3 5 1022.3 1022.3 0.0
12/12:00pm 15.0 13.1 8.9 67 3.1 NNE 9 15 5 8 1022.8 1022.8 0.0
12/11:30am 14.1 12.7 9.7 75 2.3 NNE 7 13 4 7 1023.4 1023.4 0.0
12/11:00am 13.9 12.7 9.5 75 2.3 E 6 11 3 6 1024.1 1024.1 0.0
12/10:30am 12.5 11.2 9.3 81 1.6 ENE 6 9 3 5 1024.6 1024.6 0.0
12/10:00am 12.2 11.7 9.2 82 1.5 SW 2 6 1 3 1025.0 1025.0 0.0
12/09:30am 11.8 10.5 9.2 84 1.3 WSW 6 9 3 5 1025.1 1025.1 0.0
12/09:00am 11.4 9.9 9.3 87 1.0 SW 7 9 4 5 1025.2 1025.2 0.0
12/08:30am 10.8 8.9 9.1 89 0.8 WSW 9 11 5 6 1025.3 1025.3 0.0
12/08:00am 10.3 8.4 8.9 91 0.7 W 9 11 5 6 1025.1 1025.1 0.0
12/07:30am 9.7 6.9 8.5 92 0.6 W 13 15 7 8 1024.9 1024.9 0.0
12/07:00am 9.0 8.3 8.4 96 0.3 SSW 2 7 1 4 1024.5 1024.5 0.0
12/06:30am 8.5 7.6 7.6 94 0.4 SSE 2 6 1 3 1024.3 1024.3 0.0
12/06:00am 9.4 8.9 8.0 91 0.7 CALM 0 0 0 0 1024.1 1024.1 0.0
12/05:30am 10.0 9.7 8.6 91 0.7 CALM 0 4 0 2 1024.3 1024.3 0.0
12/05:00am 10.4 9.0 8.8 90 0.8 S 6 6 3 3 1024.4 1024.4 0.0
12/04:30am 10.5 8.5 8.6 88 0.9 SW 9 9 5 5 1024.4 1024.4 0.0
12/04:00am 10.4 8.8 8.7 89 0.8 SSW 7 9 4 5 1024.8 1024.8 0.0
12/03:30am 10.4 8.4 8.5 88 0.9 SSW 9 9 5 5 1024.9 1024.9 0.0
12/03:00am 10.4 8.8 8.2 86 1.1 S 6 7 3 4 1025.1 1025.1 0.0
12/02:30am 10.4 8.7 8.5 88 0.9 SSW 7 9 4 5 1025.1 1025.1 0.0
12/02:00am 10.5 8.7 8.1 85 1.2 SW 7 9 4 5 1025.4 1025.4 0.0
12/01:30am 10.4 8.6 8.0 85 1.2 SSW 7 9 4 5 1025.6 1025.6 0.0
12/01:00am 10.5 8.6 7.6 82 1.4 SSW 7 9 4 5 1025.7 1025.7 0.0
12/12:30am 10.5 8.1 7.0 79 1.7 SSW 9 11 5 6 1025.9 1025.9 0.0
12/12:00am 10.3 7.8 6.6 78 1.7 SW 9 13 5 7 1026.1 1026.1 0.0
 
Date/Time
CST
Temp
°C
App
Temp
°C
Dew
Point
°C
Rel
Hum
%
Delta-T
°C
Wind Press
QNH
hPa
Press
MSL
hPa
Rain since
9am
mm
Dir  Spd
km/h
Gust
km/h
Spd
kts
Gust
kts
11/11:30pm 10.2 7.2 6.2 76 1.8 SSW 11 13 6 7 1026.4 1026.4 0.0
11/11:00pm 9.9 6.5 5.7 75 1.9 SW 13 17 7 9 1026.5 1026.5 0.0
11/10:30pm 9.1 5.7 5.7 79 1.5 SW 13 17 7 9 1026.6 1026.6 0.0
11/10:00pm 8.5 4.5 5.1 79 1.5 SW 15 15 8 8 1026.7 1026.7 0.0
11/09:30pm 8.8 5.6 5.0 77 1.7 SSW 11 13 6 7 1026.7 1026.7 0.0
11/09:00pm 11.3 8.2 5.6 68 2.6 S 11 15 6 8 1026.8 1026.8 0.0
11/08:30pm 11.8 7.5 5.2 64 3.0 SSE 17 22 9 12 1026.7 1026.7 0.0
11/08:00pm 12.1 7.9 5.9 66 2.9 S 17 24 9 13 1026.6 1026.6 0.0
11/07:30pm 12.2 8.0 5.8 65 3.0 SE 17 22 9 12 1026.5 1026.5 0.0
11/07:00pm 12.4 8.3 6.0 65 3.0 SSE 17 26 9 14 1026.1 1026.1 0.0
11/06:30pm 12.5 8.4 6.1 65 3.0 SSE 17 24 9 13 1025.8 1025.8 0.0
11/06:00pm 12.5 9.0 7.0 69 2.6 S 15 20 8 11 1025.6 1025.6 0.0
11/05:30pm 12.7 8.4 7.2 69 2.7 S 19 24 10 13 1025.3 1025.3 0.0
11/05:00pm 12.9 7.9 6.5 65 3.1 S 22 30 12 16 1025.1 1025.1 0.0
11/04:30pm 13.4 7.3 6.7 64 3.2 S 28 39 15 21 1025.0 1025.0 0.0
11/04:00pm 13.9 8.3 7.0 63 3.4 S 26 35 14 19 1024.8 1024.8 0.0
11/03:30pm 14.4 9.3 7.5 63 3.4 S 24 32 13 17 1024.8 1024.8 0.0
11/03:00pm 14.5 9.7 7.5 63 3.4 SSW 22 33 12 18 1024.6 1024.6 0.0
11/02:30pm 14.1 9.4 7.9 66 3.1 S 22 32 12 17 1024.6 1024.6 0.0
11/02:00pm 15.2 11.3 9.3 68 3.0 SSW 20 32 11 17 1024.5 1024.5 0.0
11/01:30pm 14.7 10.7 8.2 65 3.2 S 19 26 10 14 1024.6 1024.6 0.0
11/01:00pm 14.4 10.3 7.7 64 3.3 SSE 19 26 10 14 1024.9 1024.9 0.0
11/12:30pm 14.1 9.7 7.6 65 3.2 SSE 20 26 11 14 1025.1 1025.1 0.0
11/12:00pm 13.8 9.6 8.2 69 2.8 SSE 20 28 11 15 1025.5 1025.5 0.0
11/11:30am 13.6 9.7 8.7 72 2.5 S 19 24 10 13 1025.8 1025.8 0.0

Other formats

Comma delimited format used in spreadsheet applications
http://www.bom.gov.au/fwo/IDS60801/IDS60801.95818.axf

JavaScript Object Notation format (JSON) in row-major order
http://www.bom.gov.au/fwo/IDS60801/IDS60801.95818.json

Data quality

Most of these data are generated automatically and are frequently updated. Quality checks on data are not normally performed. It is possible for incorrect values to appear. Refer to information at About Latest Weather Observations and please check the disclaimer before using these data.